• Join FlightAware (Why Join?)
  • Login
  • US Flag 
03:30AM EDT


 

Airport Tracker/Info


-or-


 

Live Flight TrackerFlight Track Log ✈ FLG3432 ✈ 08-May-2013 ✈ KALB - KMSP

Flight Track Log - Related Links

Times and Time Zones

All times are in EDT time to prevent confusion due to time zone crossing. See the FLG3432 flight status page for this flight to view local times or setup timezone preferences in your user account.

Time Position Orientation Groundspeed Altitude Reporting Facility
EDT Latitude Longitude Course Direction KTS MPH feet Rate Location/Type
06:26AM 42.7319 -73.8081 284° West 143 165 1,100  Level Boston Center
06:27AM 42.6961 -73.8383 212° Southwest 203 234 3,400 1,920 Climbing Boston Center
06:28AM 42.7389 -73.9214 305° West 248 285 5,500 2,280 Climbing Boston Center
06:29AM 42.8422 -74.3863 283° West  Level FlightAware Approximate
06:29AM 42.8089 -73.9825 327° Northwest 261 300 8,500  Level Boston Center
06:30AM 42.8675 -74.5351 304° West  Level FlightAware Approximate
06:30AM 42.8831 -74.0439 329° Northwest 295 339 11,000  Level Boston Center
06:31AM 42.9037 -74.6779 284° West  Level FlightAware Approximate
06:31AM 42.9756 -74.1258 327° Northwest 348 400 13,600  Level Boston Center
06:32AM 43.0558 -74.1989 326° Northwest 372 428 16,000 2,340 Climbing Boston Center
06:33AM 43.1144 -74.3200 304° West 364 419 18,300 2,040 Climbing Boston Center
06:34AM 43.1267 -74.4514 277° West 359 413 20,100 1,800 Climbing Boston Center
06:35AM 43.1386 -74.6025 276° West 379 436 21,900 1,740 Climbing Boston Center
06:36AM 43.1500 -74.7594 276° West 404 465 23,600 1,560 Climbing Boston Center
06:37AM 43.1611 -74.9194 275° West 418 481 25,100 1,440 Climbing Boston Center
06:38AM 43.1764 -75.0853 277° West 432 497 26,500 1,320 Climbing Boston Center
06:39AM 43.1867 -75.2564 275° West 444 511 27,800 1,380 Climbing Boston Center
06:40AM 43.2011 -75.4311 277° West 457 526 29,300 1,440 Climbing Boston Center
06:41AM 43.2167 -75.6228 276° West 468 539 30,700 1,440 Climbing Boston Center
06:42AM 43.2306 -75.7972 276° West 463 533 32,200 1,320 Climbing Boston Center
06:44AM 43.2478 -76.0736 275° West 459 528 34,400 1,140 Climbing Cleveland Center
06:45AM 43.2606 -76.2467 276° West 459 528 35,400 960 Climbing Cleveland Center
06:46AM 43.2733 -76.4228 276° West 459 528 36,400 1,080 Climbing Cleveland Center
06:47AM 43.2836 -76.5933 275° West 459 528 37,600 780 Climbing Cleveland Center
06:48AM 43.2933 -76.7636 275° West 459 528 38,000 180 Climbing Cleveland Center
06:49AM 43.3031 -76.9372 274° West 459 528 38,000  Level Cleveland Center
06:50AM 43.3133 -77.1336 274° West 459 528 38,000  Level Cleveland Center
06:51AM 43.3247 -77.3100 275° West 459 528 38,000  Level Cleveland Center
06:52AM 43.3339 -77.4892 274° West 459 528 38,000  Level Cleveland Center
06:53AM 43.3467 -77.6686 276° West 464 534 38,000  Level Cleveland Center
06:54AM 43.3553 -77.8453 274° West 464 534 38,000  Level Cleveland Center
06:55AM 43.3656 -78.0247 275° West 469 540 38,000  Level Cleveland Center
06:56AM 43.3944 -78.1978 283° West 469 540 38,000  Level Cleveland Center
06:57AM 43.4228 -78.3708 283° West 469 540 38,000  Level Cleveland Center
06:58AM 43.4511 -78.5472 283° West 469 540 38,000  Level Cleveland Center
06:59AM 43.4769 -78.7239 281° West 469 540 38,000  Level Cleveland Center
06:59AM 43.4833 -78.8000 277° West 470 541 38,000  Level Toronto Center
07:00AM 43.5167 -78.9833 284° West 470 541 38,000  Level Toronto Center
07:01AM 43.5333 -79.1667 277° West 470 541 38,000  Level Toronto Center
07:02AM 43.5667 -79.3333 285° West 470 541 38,000  Level Toronto Center
07:03AM 43.5833 -79.5000 278° West 460 529 38,000  Level Toronto Center
07:04AM 43.6167 -79.6833 284° West 470 541 38,000  Level Toronto Center
07:05AM 43.6500 -79.8667 284° West 470 541 38,000  Level Toronto Center
07:06AM 43.6667 -80.0167 279° West 460 529 38,000  Level Toronto Center
07:07AM 43.7000 -80.2167 283° West 470 541 38,000  Level Toronto Center
07:08AM 43.7167 -80.4000 277° West 460 529 38,000  Level Toronto Center
07:09AM 43.7500 -80.5500 287° West 460 529 38,000  Level Toronto Center
07:10AM 43.7667 -80.7333 277° West 460 529 38,000  Level Toronto Center
07:11AM 43.7833 -80.9000 278° West 470 541 38,000  Level Toronto Center
07:12AM 43.8167 -81.0833 284° West 460 529 38,000  Level Toronto Center
07:13AM 43.8333 -81.2500 278° West 460 529 38,000  Level Toronto Center
07:14AM 43.8667 -81.4333 284° West 460 529 38,000  Level Toronto Center
07:15AM 43.8833 -81.6167 277° West 460 529 38,000  Level Toronto Center
07:16AM 43.9167 -81.7833 286° West 460 529 38,000  Level Toronto Center
07:17AM 43.9167 -81.9667 270° West 460 529 38,000  Level Toronto Center
07:18AM 43.9500 -82.1333 286° West 460 529 38,000  Level Toronto Center
07:19AM 43.9667 -82.3167 277° West 460 529 38,000  Level Toronto Center
07:20AM 44.0000 -82.4833 286° West 460 529 38,000  Level Toronto Center
07:22AM 44.0403 -82.7117 284° West 463 533 38,000  Level Minneapolis Center
07:23AM 44.0628 -82.8869 280° West 463 533 38,000  Level Minneapolis Center
07:24AM 44.0875 -83.0611 281° West 461 531 38,000  Level Minneapolis Center
07:25AM 44.1106 -83.2356 280° West 460 529 38,000  Level Minneapolis Center
07:26AM 44.1386 -83.4450 281° West 461 531 38,000  Level Minneapolis Center
07:27AM 44.1606 -83.6189 280° West 458 527 38,000  Level Minneapolis Center
07:28AM 44.1836 -83.7928 281° West 458 527 38,000  Level Minneapolis Center
07:29AM 44.2067 -83.9678 280° West 460 529 38,000  Level Minneapolis Center
07:30AM 44.2289 -84.1417 280° West 459 528 38,000  Level Minneapolis Center
07:31AM 44.2464 -84.2811 280° West 457 526 38,000  Level Minneapolis Center
07:32AM 44.2714 -84.4897 280° West 457 526 38,000  Level Minneapolis Center
07:33AM 44.2922 -84.6636 280° West 455 524 38,000  Level Minneapolis Center
07:35AM 44.3433 -85.0819 280° West 456 525 38,000  Level Minneapolis Center
07:36AM 44.3642 -85.2558 280° West 455 524 38,000  Level Minneapolis Center
07:37AM 44.3828 -85.4317 278° West 456 525 38,000  Level Minneapolis Center
07:38AM 44.4028 -85.6061 279° West 456 525 38,000  Level Minneapolis Center
07:39AM 44.4222 -85.7808 279° West 454 522 38,000  Level Minneapolis Center
07:40AM 44.4411 -85.9567 279° West 455 524 38,000  Level Minneapolis Center
07:41AM 44.4589 -86.1336 278° West 455 524 38,000  Level Minneapolis Center
07:42AM 44.4794 -86.3092 279° West 453 521 38,000  Level Minneapolis Center
07:43AM 44.4967 -86.4867 278° West 457 526 38,000  Level Minneapolis Center
07:44AM 44.5150 -86.6617 278° West 454 522 38,000  Level Minneapolis Center
07:45AM 44.5325 -86.8347 278° West 450 518 38,000  Level Minneapolis Center
07:46AM 44.5503 -87.0100 278° West 453 521 38,000  Level Minneapolis Center
07:48AM 44.5667 -87.1836 278° West 450 518 38,000  Level Minneapolis Center
07:49AM 44.5836 -87.3575 278° West 450 518 38,000  Level Minneapolis Center
07:50AM 44.6000 -87.5308 278° West 451 519 38,000  Level Minneapolis Center
07:51AM 44.6186 -87.7369 277° West 446 513 38,000  Level Minneapolis Center
07:52AM 44.6350 -87.9089 278° West 444 511 38,000  Level Minneapolis Center
07:53AM 44.6492 -88.0778 277° West 437 503 38,000  Level Minneapolis Center
07:54AM 44.6644 -88.2478 277° West 439 505 38,000  Level Minneapolis Center
07:55AM 44.6789 -88.4169 277° West 437 503 38,000  Level Minneapolis Center
07:56AM 44.6928 -88.5850 277° West 435 501 38,000  Level Minneapolis Center
07:57AM 44.7069 -88.7511 277° West 432 497 38,000  Level Minneapolis Center
07:58AM 44.7200 -88.9175 276° West 430 495 38,000  Level Minneapolis Center
07:59AM 44.7336 -89.0842 277° West 429 494 38,000 -540 Level Minneapolis Center
08:00AM 44.7489 -89.2789 276° West 430 495 36,900 -1,080 Descending Minneapolis Center
08:01AM 44.7611 -89.4492 276° West 436 502 35,900 -1,020 Descending Minneapolis Center
08:02AM 44.7744 -89.6169 276° West 434 499 34,900 -1,020 Descending Minneapolis Center
08:03AM 44.7861 -89.7836 276° West 431 496 33,900 -1,020 Descending Minneapolis Center
08:04AM 44.7986 -89.9503 276° West 428 493 32,900 -960 Descending Minneapolis Center
08:05AM 44.8103 -90.1144 276° West 425 489 32,000 -480 Descending Minneapolis Center
08:06AM 44.8222 -90.2786 276° West 422 486 32,000  Level Minneapolis Center
08:07AM 44.8564 -90.4508 286° West 415 478 32,000  Level Minneapolis Center
08:08AM 44.9533 -90.5397 327° Northwest 428 493 32,000 -420 Level Minneapolis Center
08:09AM 45.0589 -90.6100 335° Northwest 429 494 31,200 -1,020 Descending Minneapolis Center
08:10AM 45.0856 -90.7619 284° West 407 468 30,000 -1,320 Descending Minneapolis Center
08:11AM 45.0847 -90.9197 270° West 427 491 28,600 -1,740 Descending Minneapolis Center
08:12AM 45.0767 -91.1211 267° West 429 494 26,500 -2,040 Descending Minneapolis Center
08:13AM 45.0761 -91.2831 270° West 420 483 24,500 -1,980 Descending Minneapolis Center
08:14AM 45.0717 -91.4378 268° West 404 465 22,500 -1,800 Descending Minneapolis Center
08:15AM 45.0686 -91.5578 268° West 392 451 20,900 -1,980 Descending Minneapolis Center
08:16AM 45.0656 -91.7364 269° West 382 440 18,500 -2,040 Descending Minneapolis Center
08:17AM 45.0617 -91.8814 268° West 374 430 16,700 -1,860 Descending Minneapolis Center
08:18AM 45.0575 -92.0258 268° West 370 426 14,700 -2,220 Descending Minneapolis Center
08:19AM 45.0519 -92.1961 267° West 364 419 12,200 -1,800 Descending Minneapolis Center
08:20AM 45.0431 -92.3339 265° West 356 410 11,000 -960 Descending Minneapolis Center
08:21AM 45.0211 -92.4564 256° West 324 373 10,300 -840 Descending Minneapolis Center
08:22AM 44.9744 -92.5419 232° Southwest 276 318 9,300 -1,080 Descending Minneapolis Center
08:23AM 44.9300 -92.6292 234° Southwest 273 314 8,100 -1,080 Descending Minneapolis Center
08:24AM 44.8853 -92.7139 233° Southwest 270 311 7,100 -720 Descending Minneapolis Center
08:26AM 44.8411 -92.7997 234° Southwest 271 312 6,500 -900 Descending Minneapolis Center
08:27AM 44.8192 -92.9356 257° West 271 312 5,100 -1,260 Descending Minneapolis Center
08:28AM 44.8219 -93.0278 272° West 240 276 4,000 -1,140 Descending Minneapolis Center